createdAt,value
2018-07-08T00:00:17.215Z,18.37
2018-07-08T00:01:17.239Z,18.29
2018-07-08T00:02:17.259Z,18.3
2018-07-08T00:03:17.027Z,18.25
2018-07-08T00:04:17.315Z,18.25
2018-07-08T00:05:16.817Z,18.26
2018-07-08T00:06:32.017Z,18.14
2018-07-08T00:07:17.384Z,18.23
2018-07-08T00:08:17.401Z,18.18
2018-07-08T00:09:17.431Z,18.17
2018-07-08T00:10:17.450Z,18.12
2018-07-08T00:11:17.478Z,18.08
2018-07-08T00:12:17.245Z,18.14
2018-07-08T00:13:32.187Z,18.15
2018-07-08T00:14:17.557Z,18.1
2018-07-08T00:15:32.234Z,18.07
2018-07-08T00:16:32.002Z,18.02
2018-07-08T00:17:17.619Z,17.96
2018-07-08T00:18:17.648Z,18.07
2018-07-08T00:19:17.412Z,18
2018-07-08T00:20:17.698Z,17.89
2018-07-08T00:21:17.715Z,17.89
2018-07-08T00:24:17.787Z,17.89
2018-07-08T00:25:17.553Z,17.82
2018-07-08T00:26:17.836Z,17.87
2018-07-08T00:27:17.865Z,17.82
2018-07-08T00:28:17.885Z,17.81
2018-07-08T00:29:17.917Z,17.84
2018-07-08T00:30:17.677Z,17.81
2018-07-08T00:31:17.960Z,17.71
2018-07-08T00:32:17.982Z,17.71
2018-07-08T00:33:18.005Z,17.64
2018-07-08T00:34:17.771Z,17.66
2018-07-08T00:35:18.052Z,17.66
2018-07-08T00:36:18.078Z,17.63
2018-07-08T00:37:17.842Z,17.58
2018-07-08T00:38:32.785Z,17.56
2018-07-08T00:39:17.893Z,17.68
2018-07-08T00:40:18.171Z,17.66
2018-07-08T00:41:18.196Z,17.64
2018-07-08T00:42:17.960Z,17.68
2018-07-08T00:43:18.245Z,17.72
2018-07-08T00:44:18.008Z,17.66
2018-07-08T00:45:18.290Z,17.63
2018-07-08T00:46:18.056Z,17.63
2018-07-08T00:47:18.342Z,17.64
2018-07-08T00:48:32.766Z,17.63
2018-07-08T00:49:18.387Z,17.62
2018-07-08T00:50:18.417Z,17.71
2018-07-08T00:51:18.176Z,17.74
2018-07-08T00:52:18.456Z,17.78
2018-07-08T00:53:33.144Z,17.72
2018-07-08T00:54:18.251Z,17.74
2018-07-08T00:55:18.278Z,17.77
2018-07-08T00:57:18.582Z,17.64
2018-07-08T00:58:18.601Z,17.66
2018-07-08T00:59:18.636Z,17.71
2018-07-08T01:00:18.650Z,17.7
2018-07-08T01:01:18.674Z,17.68
2018-07-08T01:02:18.739Z,17.56
2018-07-08T01:03:18.721Z,17.62
2018-07-08T01:04:18.750Z,17.56
2018-07-08T01:05:18.768Z,17.49
2018-07-08T01:06:18.791Z,17.51
2018-07-08T01:07:18.815Z,17.55
2018-07-08T01:08:18.581Z,17.43
2018-07-08T01:09:18.865Z,17.56
2018-07-08T01:11:18.652Z,17.38
2018-07-08T01:12:18.676Z,17.4
2018-07-08T01:13:18.959Z,17.33
2018-07-08T01:14:18.983Z,17.36
2018-07-08T01:15:19.005Z,17.28
2018-07-08T01:16:19.035Z,17.28
2018-07-08T01:17:19.051Z,17.25
2018-07-08T01:18:19.087Z,17.43
2018-07-08T01:19:19.099Z,17.41
2018-07-08T01:20:18.865Z,17.43
2018-07-08T01:21:19.147Z,17.43
2018-07-08T01:22:19.272Z,17.38
2018-07-08T01:23:19.201Z,17.44
2018-07-08T01:24:19.222Z,17.54
2018-07-08T01:25:33.907Z,17.51
2018-07-08T01:27:19.039Z,17.48
2018-07-08T01:28:19.320Z,17.44
2018-07-08T01:29:19.338Z,17.52
2018-07-08T01:30:19.364Z,17.41
2018-07-08T01:31:19.127Z,17.41
2018-07-08T01:32:19.407Z,17.36
2018-07-08T01:33:19.174Z,17.3
2018-07-08T01:34:19.456Z,17.3
2018-07-08T01:35:19.481Z,17.16
2018-07-08T01:36:19.504Z,17.19
2018-07-08T01:37:19.274Z,17.25
2018-07-08T01:38:19.553Z,17.18
2018-07-08T01:39:19.576Z,17.16
2018-07-08T01:40:19.598Z,17.18
2018-07-08T01:42:19.645Z,17.21
2018-07-08T01:43:19.410Z,17.16
2018-07-08T01:44:19.796Z,17.18
2018-07-08T01:45:19.715Z,17.08
2018-07-08T01:46:19.742Z,17.04
2018-07-08T01:47:19.769Z,17.01
2018-07-08T01:48:19.794Z,17.06
2018-07-08T01:49:34.478Z,17.06
2018-07-08T01:50:19.838Z,17.08
2018-07-08T01:51:19.600Z,17
2018-07-08T01:52:19.627Z,16.91
2018-07-08T01:53:19.654Z,16.97
2018-07-08T01:54:19.670Z,16.93
2018-07-08T01:55:19.695Z,16.93
2018-07-08T01:56:19.718Z,16.83
2018-07-08T01:57:34.661Z,16.85
2018-07-08T01:58:20.025Z,16.83
2018-07-08T01:59:20.047Z,16.89
2018-07-08T02:00:19.810Z,16.83
2018-07-08T02:01:19.836Z,16.85
2018-07-08T02:02:20.125Z,16.83
2018-07-08T02:03:20.140Z,16.86
2018-07-08T02:04:20.164Z,16.81
2018-07-08T02:05:20.197Z,16.86
2018-07-08T02:06:20.212Z,16.88
2018-07-08T02:07:20.237Z,16.85
2018-07-08T02:08:20.259Z,16.89
2018-07-08T02:09:20.024Z,16.83
2018-07-08T02:10:20.047Z,16.82
2018-07-08T02:11:20.071Z,16.88
2018-07-08T02:12:20.353Z,16.82
2018-07-08T02:13:35.034Z,16.91
2018-07-08T02:14:20.401Z,16.85
2018-07-08T02:15:20.421Z,16.85
2018-07-08T02:16:20.185Z,16.86
2018-07-08T02:17:20.472Z,16.88
2018-07-08T02:18:20.491Z,16.93
2018-07-08T02:19:20.518Z,16.91
2018-07-08T02:20:20.537Z,16.89
2018-07-08T02:21:20.305Z,16.85
2018-07-08T02:22:20.328Z,16.89
2018-07-08T02:23:20.608Z,16.85
2018-07-08T02:24:20.123Z,16.83
2018-07-08T02:25:20.655Z,16.79
2018-07-08T02:26:20.683Z,16.76
2018-07-08T02:27:20.701Z,16.82
2018-07-08T02:28:35.387Z,16.76
2018-07-08T02:29:20.754Z,16.78
2018-07-08T02:30:20.777Z,16.81
2018-07-08T02:31:20.800Z,16.78
2018-07-08T02:32:20.821Z,16.68
2018-07-08T02:33:20.844Z,16.73
2018-07-08T02:34:20.872Z,16.71
2018-07-08T02:35:20.890Z,16.68
2018-07-08T02:36:35.574Z,16.73
2018-07-08T02:37:20.937Z,16.67
2018-07-08T02:38:35.620Z,16.64
2018-07-08T02:39:20.733Z,16.64
2018-07-08T02:40:21.014Z,16.66
2018-07-08T02:41:21.033Z,16.64
2018-07-08T02:42:21.062Z,16.53
2018-07-08T02:43:21.078Z,16.6
2018-07-08T02:44:20.846Z,16.64
2018-07-08T02:46:21.203Z,16.6
2018-07-08T02:47:20.926Z,16.56
2018-07-08T02:48:21.201Z,16.53
2018-07-08T02:49:20.961Z,16.56
2018-07-08T02:50:20.986Z,16.58
2018-07-08T02:51:21.268Z,16.63
2018-07-08T02:52:21.036Z,16.67
2018-07-08T02:53:21.318Z,16.6
2018-07-08T02:54:21.338Z,16.58
2018-07-08T02:55:21.364Z,16.53
2018-07-08T02:56:21.381Z,16.66
2018-07-08T02:58:21.428Z,16.58
2018-07-08T02:59:21.448Z,16.5
2018-07-08T03:00:36.236Z,16.57
2018-07-08T03:01:21.506Z,16.49
2018-07-08T03:03:21.545Z,16.53
2018-07-08T03:04:21.568Z,16.63
2018-07-08T03:05:21.590Z,16.56
2018-07-08T03:06:21.618Z,16.66
2018-07-08T03:07:21.643Z,16.61
2018-07-08T03:08:21.665Z,16.53
2018-07-08T03:09:21.722Z,16.53
2018-07-08T03:10:21.712Z,16.49
2018-07-08T03:11:21.475Z,16.57
2018-07-08T03:12:21.507Z,16.57
2018-07-08T03:13:21.780Z,16.56
2018-07-08T03:14:21.801Z,16.56
2018-07-08T03:15:21.830Z,16.56
2018-07-08T03:16:36.509Z,16.46
2018-07-08T03:17:21.614Z,16.52
2018-07-08T03:18:21.897Z,16.56
2018-07-08T03:19:21.921Z,16.57
2018-07-08T03:20:21.943Z,16.57
2018-07-08T03:21:21.726Z,16.53
2018-07-08T03:22:21.732Z,16.45
2018-07-08T03:23:22.010Z,16.57
2018-07-08T03:24:36.696Z,16.52
2018-07-08T03:25:22.055Z,16.48
2018-07-08T03:26:22.084Z,16.5
2018-07-08T03:27:22.107Z,16.53
2018-07-08T03:28:21.871Z,16.52
2018-07-08T03:29:22.149Z,16.56
2018-07-08T03:30:22.186Z,16.61
2018-07-08T03:31:22.206Z,16.56
2018-07-08T03:32:36.883Z,16.63
2018-07-08T03:33:22.355Z,16.63
2018-07-08T03:34:22.267Z,16.64
2018-07-08T03:35:22.296Z,16.66
2018-07-08T03:36:22.312Z,16.7
2018-07-08T03:37:22.338Z,16.73
2018-07-08T03:38:22.102Z,16.66
2018-07-08T03:39:37.045Z,16.73
2018-07-08T03:40:22.405Z,16.85
2018-07-08T03:41:22.429Z,16.86
2018-07-08T03:42:37.111Z,16.89
2018-07-08T03:43:37.134Z,16.85
2018-07-08T03:44:22.501Z,16.82
2018-07-08T03:45:22.263Z,16.78
2018-07-08T03:46:22.543Z,16.82
2018-07-08T03:47:22.570Z,16.96
2018-07-08T03:48:36.994Z,16.96
2018-07-08T03:49:22.614Z,16.98
2018-07-08T03:50:22.640Z,17.04
2018-07-08T03:51:22.658Z,17.21
2018-07-08T03:52:22.680Z,17.14
2018-07-08T03:53:22.707Z,17.15
2018-07-08T03:54:22.472Z,17.19
2018-07-08T03:55:22.498Z,17.15
2018-07-08T03:56:37.441Z,17.19
2018-07-08T03:57:37.463Z,17.21
2018-07-08T03:58:22.827Z,17.25
2018-07-08T03:59:22.589Z,17.19
2018-07-08T04:00:22.870Z,17.22
2018-07-08T04:01:22.637Z,17.19
2018-07-08T04:02:22.917Z,17.18
2018-07-08T04:03:37.611Z,17.25
2018-07-08T04:04:22.965Z,17.28
2018-07-08T04:05:22.986Z,17.31
2018-07-08T04:06:23.014Z,17.23
2018-07-08T04:07:22.778Z,17.3
2018-07-08T04:08:37.727Z,17.28
2018-07-08T04:09:23.085Z,17.33
2018-07-08T04:10:23.106Z,17.19
2018-07-08T04:11:23.126Z,17.41
2018-07-08T04:12:23.162Z,17.38
2018-07-08T04:13:37.833Z,17.38
2018-07-08T04:14:23.197Z,17.49
2018-07-08T04:15:23.473Z,17.54
2018-07-08T04:16:23.247Z,17.58
2018-07-08T04:17:23.020Z,17.56
2018-07-08T04:18:23.291Z,17.78
2018-07-08T04:20:23.338Z,17.62
2018-07-08T04:22:23.388Z,17.64
2018-07-08T04:23:23.408Z,17.7
2018-07-08T04:24:23.176Z,17.74
2018-07-08T04:25:23.202Z,17.49
2018-07-08T04:26:23.479Z,17.55
2018-07-08T04:27:23.246Z,17.54
2018-07-08T04:28:23.370Z,17.58
2018-07-08T04:30:23.379Z,17.55
2018-07-08T04:31:23.602Z,17.62
2018-07-08T04:32:23.621Z,17.59
2018-07-08T04:33:23.488Z,17.44
2018-07-08T04:34:23.669Z,17.54
2018-07-08T04:35:38.360Z,17.41
2018-07-08T04:36:23.730Z,17.54
2018-07-08T04:37:23.746Z,17.56
2018-07-08T04:39:23.532Z,17.54
2018-07-08T04:40:23.808Z,17.64
2018-07-08T04:41:23.833Z,17.72
2018-07-08T04:42:23.858Z,17.68
2018-07-08T04:43:23.882Z,17.71
2018-07-08T04:44:23.904Z,17.82
2018-07-08T04:45:38.592Z,17.82
2018-07-08T04:46:23.954Z,17.82
2018-07-08T04:48:24.001Z,17.7
2018-07-08T04:49:24.271Z,17.72
2018-07-08T04:50:23.789Z,17.68
2018-07-08T04:51:38.731Z,17.63
2018-07-08T04:52:24.149Z,17.66
2018-07-08T04:53:24.123Z,17.72
2018-07-08T04:54:24.140Z,17.72
2018-07-08T04:55:24.168Z,17.87
2018-07-08T04:56:24.189Z,17.93
2018-07-08T04:58:24.236Z,17.97
2018-07-08T04:59:24.311Z,17.9
2018-07-08T05:00:24.025Z,17.9
2018-07-08T05:01:24.310Z,17.77
2018-07-08T05:02:24.331Z,17.74
2018-07-08T05:03:24.349Z,17.82
2018-07-08T05:04:24.384Z,17.7
2018-07-08T05:05:24.398Z,17.71
2018-07-08T05:06:24.232Z,17.79
2018-07-08T05:07:39.107Z,17.9
2018-07-08T05:08:24.467Z,17.89
2018-07-08T05:10:24.003Z,18.1
2018-07-08T05:11:24.548Z,18.11
2018-07-08T05:13:24.594Z,18.21
2018-07-08T05:14:24.354Z,18.25
2018-07-08T05:15:24.636Z,18.44
2018-07-08T05:16:24.399Z,18.52
2018-07-08T05:17:24.686Z,18.62
2018-07-08T05:18:24.703Z,18.69
2018-07-08T05:19:24.742Z,18.65
2018-07-08T05:20:24.906Z,18.67
2018-07-08T05:21:24.530Z,18.62
2018-07-08T05:22:24.547Z,18.58
2018-07-08T05:23:39.485Z,18.63
2018-07-08T05:24:24.860Z,18.45
2018-07-08T05:25:24.880Z,18.44
2018-07-08T05:26:24.900Z,18.48
2018-07-08T05:27:24.665Z,18.52
2018-07-08T05:28:24.963Z,18.44
2018-07-08T05:29:24.970Z,18.57
2018-07-08T05:30:24.997Z,18.63
2018-07-08T05:31:25.018Z,18.7
2018-07-08T05:32:39.702Z,18.87
2018-07-08T05:33:24.548Z,18.75
2018-07-08T05:34:25.084Z,18.76
2018-07-08T05:35:25.113Z,18.85
2018-07-08T05:36:25.144Z,18.94
2018-07-08T05:38:39.850Z,19.18
2018-07-08T05:39:24.962Z,19.28
2018-07-08T05:40:25.241Z,19.41
2018-07-08T05:41:25.255Z,19.58
2018-07-08T05:42:25.336Z,19.54
2018-07-08T05:43:25.308Z,19.59
2018-07-08T05:44:25.337Z,19.58
2018-07-08T05:45:25.365Z,19.54
2018-07-08T05:46:25.387Z,19.61
2018-07-08T05:47:25.243Z,19.8
2018-07-08T05:48:25.168Z,20.11
2018-07-08T05:49:25.455Z,20.05
2018-07-08T05:50:25.588Z,20.11
2018-07-08T05:51:24.983Z,20.01
2018-07-08T05:52:25.523Z,20.11
2018-07-08T05:53:25.546Z,19.73
2018-07-08T05:54:25.315Z,19.74
2018-07-08T05:55:25.600Z,19.58
2018-07-08T05:56:25.627Z,19.61
2018-07-08T05:57:25.651Z,19.77
2018-07-08T05:58:25.676Z,19.74
2018-07-08T06:00:40.382Z,19.56
2018-07-08T06:01:25.744Z,19.4
2018-07-08T06:02:25.768Z,19.26
2018-07-08T06:03:25.800Z,19.28
2018-07-08T06:04:25.820Z,19.21
2018-07-08T06:05:25.585Z,19.31
2018-07-08T06:06:25.866Z,19.37
2018-07-08T06:07:25.633Z,19.31
2018-07-08T06:08:25.913Z,19.54
2018-07-08T06:09:25.939Z,19.44
2018-07-08T06:10:40.623Z,19.61
2018-07-08T06:11:25.730Z,19.61
2018-07-08T06:12:26.012Z,19.48
2018-07-08T06:13:25.776Z,19.68
2018-07-08T06:14:25.807Z,19.76
2018-07-08T06:15:26.270Z,19.69
2018-07-08T06:16:25.865Z,19.63
2018-07-08T06:17:25.619Z,19.61
2018-07-08T06:18:40.822Z,19.55
2018-07-08T06:19:26.184Z,19.33
2018-07-08T06:20:40.868Z,19.21
2018-07-08T06:21:26.244Z,19.26
2018-07-08T06:22:26.259Z,19.41
2018-07-08T06:23:26.284Z,19.59
2018-07-08T06:24:26.304Z,19.63
2018-07-08T06:25:26.070Z,19.77
2018-07-08T06:26:41.016Z,19.68
2018-07-08T06:27:26.386Z,19.63
2018-07-08T06:28:26.401Z,19.69
2018-07-08T06:29:26.432Z,19.86
2018-07-08T06:30:26.454Z,20.08
2018-07-08T06:31:26.215Z,20.11
2018-07-08T06:32:26.502Z,20.23
2018-07-08T06:33:26.530Z,20.43
2018-07-08T06:34:26.301Z,20.26
2018-07-08T06:35:26.578Z,20.14
2018-07-08T06:36:26.598Z,20.14
2018-07-08T06:37:26.632Z,20.42
2018-07-08T06:38:26.389Z,20.43
2018-07-08T06:39:26.413Z,20.41
2018-07-08T06:40:26.436Z,20.29
2018-07-08T06:41:26.720Z,20.24
2018-07-08T06:42:41.414Z,20.21
2018-07-08T06:43:26.768Z,20.13
2018-07-08T06:46:26.850Z,20.11
2018-07-08T06:47:26.612Z,20.24
2018-07-08T06:48:26.894Z,20.26
2018-07-08T06:49:41.581Z,20.26
2018-07-08T06:50:26.681Z,20.26
2018-07-08T06:51:41.627Z,20.43
2018-07-08T06:52:26.743Z,20.24
2018-07-08T06:53:41.419Z,20.21
2018-07-08T06:54:26.527Z,20.23
2018-07-08T06:55:27.067Z,20.16
2018-07-08T06:56:27.089Z,20.24
2018-07-08T06:57:26.853Z,20.38
2018-07-08T06:58:41.798Z,20.38
2018-07-08T06:59:26.647Z,20.36
2018-07-08T07:00:26.987Z,20.42
2018-07-08T07:01:26.954Z,20.36
2018-07-08T07:03:27.258Z,20.47
2018-07-08T07:04:27.299Z,20.5
2018-07-08T07:05:27.313Z,20.67
2018-07-08T07:06:27.345Z,20.7
2018-07-08T07:07:27.365Z,20.58
2018-07-08T07:08:27.391Z,20.73
2018-07-08T07:09:27.417Z,20.61
2018-07-08T07:10:27.460Z,20.79
2018-07-08T07:11:27.469Z,21.04
2018-07-08T07:12:27.484Z,21.19
2018-07-08T07:13:42.170Z,21.01
2018-07-08T07:14:42.203Z,20.94
2018-07-08T07:15:27.564Z,21.12
2018-07-08T07:16:27.594Z,21.27
2018-07-08T07:17:27.795Z,21.34
2018-07-08T07:18:27.116Z,20.95
2018-07-08T07:19:27.696Z,20.77
2018-07-08T07:20:27.690Z,20.66
2018-07-08T07:21:27.712Z,20.7
2018-07-08T07:22:27.477Z,20.82
2018-07-08T07:23:27.763Z,20.97
2018-07-08T07:25:27.814Z,21.44
2018-07-08T07:26:27.840Z,21.43
2018-07-08T07:27:27.870Z,21.59
2018-07-08T07:28:27.680Z,21.59
2018-07-08T07:29:27.651Z,21.52
2018-07-08T07:30:27.938Z,21.62
2018-07-08T07:31:27.963Z,21.59
2018-07-08T07:32:42.649Z,21.74
2018-07-08T07:33:28.013Z,21.91
2018-07-08T07:34:28.036Z,21.86
2018-07-08T07:35:27.807Z,21.92
2018-07-08T07:36:28.089Z,22.14
2018-07-08T07:37:28.056Z,22.2
2018-07-08T07:38:28.134Z,22.4
2018-07-08T07:39:28.169Z,22.76
2018-07-08T07:40:28.181Z,22.97
2018-07-08T07:41:27.955Z,23.02
2018-07-08T07:42:27.981Z,23.31
2018-07-08T07:43:28.259Z,23.36
2018-07-08T07:44:28.286Z,23.38
2018-07-08T07:45:42.970Z,23.68
2018-07-08T07:46:28.340Z,23.7
2018-07-08T07:47:28.364Z,23.91
2018-07-08T07:48:28.398Z,24.03
2018-07-08T07:49:28.414Z,24.03
2018-07-08T07:50:28.440Z,24.02
2018-07-08T07:51:28.477Z,23.97
2018-07-08T07:52:28.490Z,23.57
2018-07-08T07:53:43.180Z,23.58
2018-07-08T07:54:28.554Z,23.75
2018-07-08T07:55:43.230Z,23.66
2018-07-08T07:56:28.595Z,23.33
2018-07-08T07:57:28.624Z,23.02
2018-07-08T07:58:28.655Z,22.77
2018-07-08T07:59:28.674Z,22.72
2018-07-08T08:00:28.701Z,22.9
2018-07-08T08:01:43.387Z,23.02
2018-07-08T08:02:28.754Z,23.33
2018-07-08T08:03:28.519Z,23.63
2018-07-08T08:04:28.643Z,23.9
2018-07-08T08:05:28.575Z,23.84
2018-07-08T08:06:28.859Z,24.03
2018-07-08T08:07:28.901Z,24.31
2018-07-08T08:08:29.020Z,25
2018-07-08T08:09:28.939Z,25.09
2018-07-08T08:10:28.701Z,25.21
2018-07-08T08:11:28.988Z,25.18
2018-07-08T08:12:28.499Z,25.33
2018-07-08T08:13:28.785Z,25.42
2018-07-08T08:14:28.550Z,24.83
2018-07-08T08:15:29.092Z,24.77
2018-07-08T08:16:28.913Z,24.1
2018-07-08T08:17:43.809Z,24.52
2018-07-08T08:18:28.917Z,24.76
2018-07-08T08:19:28.948Z,25.42
2018-07-08T08:21:28.999Z,26.47
2018-07-08T08:22:29.022Z,27.21
2018-07-08T08:23:29.313Z,27.62
2018-07-08T08:24:29.086Z,27.37
2018-07-08T08:25:29.105Z,26.75
2018-07-08T08:26:29.583Z,26.67
2018-07-08T08:27:29.164Z,27.32
2018-07-08T08:28:43.855Z,26.44
2018-07-08T08:29:29.483Z,26.7
2018-07-08T08:30:29.249Z,27.14
2018-07-08T08:31:29.544Z,27.75
2018-07-08T08:32:29.306Z,27.96
2018-07-08T08:33:44.257Z,28.51
2018-07-08T08:34:29.676Z,28.66
2018-07-08T08:35:29.656Z,28.85
2018-07-08T08:37:29.462Z,28.12
2018-07-08T08:38:29.742Z,27.49
2018-07-08T08:39:29.265Z,26.95
2018-07-08T08:40:44.467Z,26.75
2018-07-08T08:41:29.574Z,26.7
2018-07-08T08:42:29.862Z,26.89
2018-07-08T08:43:29.893Z,26.05
2018-07-08T08:44:29.934Z,26.29
2018-07-08T08:45:29.951Z,27.1
2018-07-08T08:46:29.980Z,27.94
2018-07-08T08:47:30.020Z,28.59
2018-07-08T08:48:44.704Z,28
2018-07-08T08:49:30.073Z,27.51
2018-07-08T08:50:30.114Z,27.4
2018-07-08T08:51:30.131Z,27.84
2018-07-08T08:52:30.020Z,27.97
2018-07-08T08:53:44.859Z,29.26
2018-07-08T08:54:29.968Z,29.43
2018-07-08T08:55:30.256Z,28.83
2018-07-08T08:56:29.767Z,28.59
2018-07-08T08:57:44.976Z,28.55
2018-07-08T08:58:44.754Z,28.62
2018-07-08T08:59:30.374Z,29.27
2018-07-08T09:00:30.172Z,29.26
2018-07-08T09:01:30.438Z,29.28
2018-07-08T09:02:30.466Z,28.61
2018-07-08T09:03:30.512Z,27.7
2018-07-08T09:04:30.270Z,26.91
2018-07-08T09:05:30.569Z,26.91
2018-07-08T09:06:30.588Z,26.99
2018-07-08T09:07:30.364Z,27.12
2018-07-08T09:08:30.654Z,26.89
2018-07-08T09:09:30.424Z,27.32
2018-07-08T09:10:30.719Z,27.97
2018-07-08T09:11:30.484Z,28.71
2018-07-08T09:12:30.774Z,29.46
2018-07-08T09:13:30.800Z,29.8
2018-07-08T09:14:45.237Z,29.78
2018-07-08T09:15:30.872Z,30.02
2018-07-08T09:16:30.892Z,30.57
2018-07-08T09:17:30.928Z,30.55
2018-07-08T09:18:30.956Z,31.25
2018-07-08T09:19:30.468Z,31.89
2018-07-08T09:20:45.682Z,32.23
2018-07-08T09:21:30.794Z,32.14
2018-07-08T09:23:31.114Z,31.47
2018-07-08T09:24:30.888Z,31.75
2018-07-08T09:25:31.175Z,31.99
2018-07-08T09:26:31.210Z,31.61
2018-07-08T09:27:31.239Z,30.08
2018-07-08T09:28:31.269Z,28.86
2018-07-08T09:29:31.303Z,28.36
2018-07-08T09:30:31.337Z,27.54
2018-07-08T09:31:31.103Z,27.54
2018-07-08T09:32:31.391Z,28.06
2018-07-08T09:33:31.424Z,28.49
2018-07-08T09:34:31.193Z,28.89
2018-07-08T09:35:31.534Z,29.02
2018-07-08T09:36:45.921Z,29.33
2018-07-08T09:37:31.552Z,29.48
2018-07-08T09:39:31.348Z,29.65
2018-07-08T09:40:31.650Z,28.4
2018-07-08T09:42:31.700Z,28.44
2018-07-08T09:43:31.475Z,28.68
2018-07-08T09:44:31.761Z,28.74
2018-07-08T09:45:31.798Z,29.36
2018-07-08T09:46:46.228Z,28.51
2018-07-08T09:47:31.858Z,28.39
2018-07-08T09:48:31.629Z,28.43
2018-07-08T09:49:31.914Z,29.02
2018-07-08T09:50:31.951Z,28.36
2018-07-08T09:51:31.983Z,28.43
2018-07-08T09:52:46.671Z,28.55
2018-07-08T09:53:32.043Z,28.58
2018-07-08T09:54:32.076Z,28.95
2018-07-08T09:55:32.101Z,29.28
2018-07-08T09:56:32.132Z,29.49
2018-07-08T09:57:32.162Z,29.83
2018-07-08T09:58:32.195Z,30
2018-07-08T09:59:32.232Z,30.15
2018-07-08T10:00:31.999Z,30.57
2018-07-08T10:01:46.949Z,30.32
2018-07-08T10:02:32.317Z,30.23
2018-07-08T10:03:47.011Z,30.1
2018-07-08T10:04:32.496Z,29.64
2018-07-08T10:05:32.427Z,29.65
2018-07-08T10:06:32.449Z,29.74
2018-07-08T10:07:32.474Z,30.34
2018-07-08T10:08:47.357Z,29.92
2018-07-08T10:10:32.664Z,29.57
2018-07-08T10:11:32.352Z,29.15
2018-07-08T10:12:32.628Z,28.52
2018-07-08T10:13:32.403Z,28.17
2018-07-08T10:14:32.696Z,28.33
2018-07-08T10:15:32.734Z,29.33
2018-07-08T10:16:32.883Z,29.98
2018-07-08T10:17:33.037Z,30.16
2018-07-08T10:18:32.925Z,30.91
2018-07-08T10:20:32.623Z,29.92
2018-07-08T10:21:33.225Z,29.6
2018-07-08T10:22:32.677Z,29.26
2018-07-08T10:23:47.631Z,28.83
2018-07-08T10:24:32.740Z,28.51
2018-07-08T10:25:33.189Z,28.46
2018-07-08T10:27:33.092Z,27.87
2018-07-08T10:28:33.117Z,27.55
2018-07-08T10:29:32.892Z,27.62
2018-07-08T10:30:33.362Z,27.65
2018-07-08T10:31:33.209Z,27.84
2018-07-08T10:32:33.240Z,27.65
2018-07-08T10:33:33.271Z,28.31
2018-07-08T10:34:33.301Z,28.44
2018-07-08T10:35:33.328Z,28.36
2018-07-08T10:36:33.529Z,28.06
2018-07-08T10:37:33.392Z,27.81
2018-07-08T10:38:33.418Z,28.09
2018-07-08T10:39:33.196Z,28.33
2018-07-08T10:40:33.476Z,28.43
2018-07-08T10:41:33.509Z,27.81
2018-07-08T10:42:33.539Z,27.81
2018-07-08T10:43:33.445Z,27.85
2018-07-08T10:44:33.595Z,28.11
2018-07-08T10:45:48.289Z,28.41
2018-07-08T10:46:33.655Z,28.3
2018-07-08T10:47:33.428Z,27.94
2018-07-08T10:48:33.714Z,28.03
2018-07-08T10:49:33.488Z,28.24
2018-07-08T10:50:33.775Z,28
2018-07-08T10:51:33.801Z,27.51
2018-07-08T10:52:33.831Z,27.66
2018-07-08T10:53:33.865Z,27.77
2018-07-08T10:54:33.891Z,28.02
2018-07-08T10:55:48.582Z,28.36
2018-07-08T10:56:33.950Z,28.29
2018-07-08T10:58:34.021Z,28
2018-07-08T10:59:34.048Z,27.85
2018-07-08T11:00:34.067Z,27.96
2018-07-08T11:01:34.095Z,27.7
2018-07-08T11:02:34.126Z,27.66
2018-07-08T11:03:48.821Z,27.19
2018-07-08T11:04:34.191Z,26.62
2018-07-08T11:05:34.211Z,26.52
2018-07-08T11:06:34.239Z,26.48
2018-07-08T11:07:34.270Z,26.54
2018-07-08T11:08:34.042Z,26.29
2018-07-08T11:09:34.069Z,26.54
2018-07-08T11:10:34.127Z,26.65
2018-07-08T11:11:49.069Z,26.3
2018-07-08T11:12:34.415Z,26.39
2018-07-08T11:13:34.443Z,26.47
2018-07-08T11:15:34.239Z,26.2
2018-07-08T11:16:34.529Z,26.4
2018-07-08T11:17:34.572Z,26.13
2018-07-08T11:18:34.583Z,26.44
2018-07-08T11:19:34.610Z,26.63
2018-07-08T11:20:34.882Z,27.07
2018-07-08T11:21:34.669Z,27.34
2018-07-08T11:22:34.438Z,27.46
2018-07-08T11:23:34.725Z,27.74
2018-07-08T11:24:34.755Z,27.9
2018-07-08T11:25:34.798Z,27.67
2018-07-08T11:27:49.499Z,27.59
2018-07-08T11:28:34.942Z,27.44
2018-07-08T11:30:34.924Z,26.76
2018-07-08T11:31:34.953Z,26.87
2018-07-08T11:32:49.646Z,26.92
2018-07-08T11:33:34.749Z,26.97
2018-07-08T11:34:49.700Z,26.76
2018-07-08T11:35:35.062Z,26.33
2018-07-08T11:36:34.836Z,25.43
2018-07-08T11:37:34.867Z,25.15
2018-07-08T11:38:35.148Z,24.91
2018-07-08T11:39:35.181Z,25.35
2018-07-08T11:40:34.955Z,25.9
2018-07-08T11:41:35.236Z,26.29
2018-07-08T11:42:35.016Z,26.6
2018-07-08T11:43:49.693Z,26.88
2018-07-08T11:44:35.065Z,27.03
2018-07-08T11:45:35.343Z,27.34
2018-07-08T11:46:35.482Z,27.22
2018-07-08T11:47:35.405Z,27.44
2018-07-08T11:48:35.434Z,27.41
2018-07-08T11:49:35.200Z,26.82
2018-07-08T11:50:50.151Z,26.65
2018-07-08T11:51:50.178Z,26.69
2018-07-08T11:52:35.285Z,26.65
2018-07-08T11:53:35.571Z,26.76
2018-07-08T11:54:35.599Z,26.76
2018-07-08T11:55:35.773Z,26.72
2018-07-08T11:56:35.402Z,26.77
2018-07-08T11:57:35.425Z,26.6
2018-07-08T11:58:50.375Z,26.29
2018-07-08T11:59:35.482Z,26.33
2018-07-08T12:00:35.516Z,26.33
2018-07-08T12:02:50.491Z,25.52
2018-07-08T12:03:50.519Z,25.28
2018-07-08T12:04:35.884Z,25.2
2018-07-08T12:05:35.909Z,25.24
2018-07-08T12:06:36.229Z,25.38
2018-07-08T12:07:35.706Z,25.58
2018-07-08T12:08:50.400Z,25.73
2018-07-08T12:09:35.767Z,25.94
2018-07-08T12:10:35.798Z,25.92
2018-07-08T12:11:35.817Z,26.13
2018-07-08T12:12:36.107Z,25.95
2018-07-08T12:13:35.873Z,25.82
2018-07-08T12:14:36.301Z,26.13
2018-07-08T12:15:35.928Z,26.07
2018-07-08T12:16:35.955Z,26.26
2018-07-08T12:17:36.247Z,26.15
2018-07-08T12:18:36.267Z,26.13
2018-07-08T12:19:36.039Z,26.33
2018-07-08T12:20:36.323Z,26.33
2018-07-08T12:21:36.350Z,26.28
2018-07-08T12:22:36.381Z,26.17
2018-07-08T12:23:51.069Z,26.52
2018-07-08T12:24:36.434Z,26.44
2018-07-08T12:25:36.204Z,26.4
2018-07-08T12:26:36.233Z,26.3
2018-07-08T12:28:36.550Z,26.6
2018-07-08T12:29:36.571Z,26.67
2018-07-08T12:30:51.264Z,26.72
2018-07-08T12:31:36.630Z,26.81
2018-07-08T12:32:36.400Z,26.57
2018-07-08T12:33:36.683Z,26.44
2018-07-08T12:34:36.715Z,26.77
2018-07-08T12:35:36.740Z,27.06
2018-07-08T12:36:36.770Z,27
2018-07-08T12:37:36.540Z,27.06
2018-07-08T12:38:36.822Z,27.06
2018-07-08T12:39:36.851Z,27.03
2018-07-08T12:40:36.901Z,27.07
2018-07-08T12:41:36.906Z,27.39
2018-07-08T12:42:36.943Z,27.43
2018-07-08T12:43:36.708Z,26.94
2018-07-08T12:44:37.073Z,26.77
2018-07-08T12:45:37.019Z,26.62
2018-07-08T12:46:51.714Z,27.27
2018-07-08T12:47:36.815Z,27.54
2018-07-08T12:48:36.854Z,27.7
2018-07-08T12:49:37.131Z,27.97
2018-07-08T12:50:37.168Z,28.18
2018-07-08T12:52:37.217Z,28.12
2018-07-08T12:53:51.906Z,28.19
2018-07-08T12:54:37.273Z,28.43
2018-07-08T12:55:51.963Z,28.12
2018-07-08T12:56:37.324Z,28.15
2018-07-08T12:57:37.097Z,28.12
2018-07-08T12:58:37.456Z,28.21
2018-07-08T12:59:37.412Z,27.92
2018-07-08T13:00:37.445Z,27.92
2018-07-08T13:01:37.472Z,28.06
2018-07-08T13:02:52.161Z,27.39
2018-07-08T13:04:37.559Z,27.66
2018-07-08T13:06:37.424Z,27.46
2018-07-08T13:07:37.386Z,27.02
2018-07-08T13:08:37.767Z,27.04
2018-07-08T13:09:37.699Z,26.92
2018-07-08T13:10:37.467Z,26.84
2018-07-08T13:11:52.430Z,26.75
2018-07-08T13:13:37.806Z,26.76
2018-07-08T13:14:37.575Z,26.94
2018-07-08T13:15:37.860Z,27.14
2018-07-08T13:16:37.890Z,27.31
2018-07-08T13:17:37.917Z,27.36
2018-07-08T13:18:52.606Z,27.62
2018-07-08T13:19:37.973Z,27.67
2018-07-08T13:20:38.007Z,27.59
2018-07-08T13:21:38.030Z,27.6
2018-07-08T13:22:38.053Z,27.65
2018-07-08T13:23:38.087Z,27.55
2018-07-08T13:24:38.218Z,27.43
2018-07-08T13:25:38.140Z,27.63
2018-07-08T13:26:38.350Z,27.75
2018-07-08T13:27:38.197Z,27.9
2018-07-08T13:28:37.968Z,27.74
2018-07-08T13:29:52.914Z,27.39
2018-07-08T13:30:38.285Z,27.4
2018-07-08T13:31:38.307Z,27.47
2018-07-08T13:32:53.107Z,27.67
2018-07-08T13:33:53.030Z,27.84
2018-07-08T13:35:38.424Z,27.66
2018-07-08T13:36:38.450Z,28.04
2018-07-08T13:37:38.481Z,27.99